createdAt,value
2023-05-09T00:01:13.236Z,95.90
2023-05-09T00:03:40.582Z,96.40
2023-05-09T00:06:07.677Z,96.50
2023-05-09T00:08:34.885Z,96.80
2023-05-09T00:11:02.418Z,97.10
2023-05-09T00:13:29.301Z,97.40
2023-05-09T00:15:57.375Z,97.70
2023-05-09T00:18:24.398Z,97.90
2023-05-09T00:20:51.320Z,98.30
2023-05-09T00:23:18.168Z,98.30
2023-05-09T00:25:45.366Z,98.60
2023-05-09T00:28:12.255Z,98.60
2023-05-09T00:30:39.159Z,98.70
2023-05-09T00:33:06.294Z,99.20
2023-05-09T00:35:33.319Z,99.40
2023-05-09T00:38:00.237Z,99.50
2023-05-09T00:40:27.170Z,99.50
2023-05-09T00:42:55.840Z,99.70
2023-05-09T00:45:22.914Z,99.90
2023-05-09T00:47:49.803Z,99.90
2023-05-09T00:50:16.964Z,99.90
2023-05-09T00:52:43.856Z,99.90
2023-05-09T00:55:11.256Z,99.90
2023-05-09T00:57:38.349Z,99.90
2023-05-09T01:00:06.212Z,99.90
2023-05-09T01:02:33.197Z,99.90
2023-05-09T01:05:00.209Z,99.90
2023-05-09T01:07:40.313Z,99.90
2023-05-09T01:10:39.465Z,99.90
2023-05-09T01:13:15.833Z,99.90
2023-05-09T01:15:49.111Z,99.90
2023-05-09T01:18:37.996Z,99.90
2023-05-09T01:21:16.297Z,99.90
2023-05-09T01:24:05.205Z,99.90
2023-05-09T01:26:56.979Z,99.90
2023-05-09T01:29:44.552Z,99.90
2023-05-09T01:32:24.794Z,99.90
2023-05-09T01:34:55.890Z,99.90
2023-05-09T01:37:29.907Z,99.90
2023-05-09T01:40:01.366Z,99.90
2023-05-09T01:42:39.452Z,99.90
2023-05-09T01:45:07.868Z,99.90
2023-05-09T01:47:35.275Z,99.90
2023-05-09T01:50:03.878Z,99.90
2023-05-09T01:52:31.903Z,99.90
2023-05-09T01:55:01.247Z,99.90
2023-05-09T01:57:30.461Z,99.90
2023-05-09T01:59:59.048Z,99.90
2023-05-09T02:02:27.867Z,99.90
2023-05-09T02:04:58.590Z,99.90
2023-05-09T02:07:26.671Z,99.90
2023-05-09T02:09:56.398Z,99.90
2023-05-09T02:12:24.234Z,99.90
2023-05-09T02:14:51.438Z,99.90
2023-05-09T02:17:19.258Z,99.90
2023-05-09T02:19:46.095Z,99.90
2023-05-09T02:22:14.801Z,99.90
2023-05-09T02:24:44.037Z,99.90
2023-05-09T02:27:12.537Z,99.90
2023-05-09T02:29:44.519Z,99.90
2023-05-09T02:32:17.127Z,99.90
2023-05-09T02:34:45.270Z,99.90
2023-05-09T02:37:13.896Z,99.90
2023-05-09T02:39:40.902Z,99.90
2023-05-09T02:42:13.412Z,99.90
2023-05-09T02:44:40.233Z,99.90
2023-05-09T02:47:07.595Z,99.90
2023-05-09T02:49:34.762Z,99.90
2023-05-09T02:52:01.655Z,99.90
2023-05-09T02:54:28.792Z,99.90
2023-05-09T02:56:55.664Z,99.90
2023-05-09T02:59:22.560Z,99.90
2023-05-09T03:01:49.468Z,99.90
2023-05-09T03:04:16.549Z,99.90
2023-05-09T03:06:43.935Z,99.90
2023-05-09T03:09:11.120Z,99.90
2023-05-09T03:11:38.033Z,99.90
2023-05-09T03:14:05.251Z,99.90
2023-05-09T03:16:32.307Z,99.90
2023-05-09T03:18:59.094Z,99.90
2023-05-09T03:21:26.292Z,99.90
2023-05-09T03:23:53.145Z,99.90
2023-05-09T03:26:20.030Z,99.90
2023-05-09T03:28:46.992Z,99.90
2023-05-09T03:31:13.903Z,99.90
2023-05-09T03:33:40.788Z,99.90
2023-05-09T03:36:08.642Z,99.90
2023-05-09T03:38:35.582Z,99.90
2023-05-09T03:41:02.585Z,99.90
2023-05-09T03:43:29.424Z,99.90
2023-05-09T03:45:56.295Z,99.90
2023-05-09T03:48:23.111Z,99.90
2023-05-09T03:50:50.175Z,99.90
2023-05-09T03:53:17.020Z,99.90
2023-05-09T03:55:44.106Z,99.90
2023-05-09T03:58:12.039Z,99.90
2023-05-09T04:00:39.087Z,99.90
2023-05-09T04:03:06.228Z,99.90
2023-05-09T04:05:36.424Z,99.90
2023-05-09T04:08:04.300Z,99.90
2023-05-09T04:10:32.090Z,99.90
2023-05-09T04:12:59.181Z,99.90
2023-05-09T04:15:26.346Z,99.90
2023-05-09T04:17:53.226Z,99.90
2023-05-09T04:20:20.218Z,99.90
2023-05-09T04:22:47.421Z,99.90
2023-05-09T04:25:15.987Z,99.90
2023-05-09T04:27:43.163Z,99.90
2023-05-09T04:30:11.086Z,99.90
2023-05-09T04:32:38.819Z,99.90
2023-05-09T04:35:08.127Z,99.90
2023-05-09T04:37:35.045Z,99.90
2023-05-09T04:40:02.169Z,99.90
2023-05-09T04:42:28.983Z,99.90
2023-05-09T04:44:55.833Z,99.90
2023-05-09T04:47:22.720Z,99.90
2023-05-09T04:49:49.680Z,99.90
2023-05-09T04:52:16.727Z,99.90
2023-05-09T04:54:43.603Z,99.90
2023-05-09T04:57:17.786Z,99.90
2023-05-09T04:59:45.711Z,99.90
2023-05-09T05:02:13.001Z,99.60
2023-05-09T05:04:40.000Z,98.10
2023-05-09T05:07:06.860Z,95.90
2023-05-09T05:09:33.760Z,94.30
2023-05-09T05:12:03.625Z,92.70
2023-05-09T05:14:31.245Z,91.80
2023-05-09T05:16:58.096Z,89.30
2023-05-09T05:19:25.029Z,87.60
2023-05-09T05:21:51.969Z,84.30
2023-05-09T05:24:19.231Z,80.00
2023-05-09T05:26:46.886Z,76.50
2023-05-09T05:29:14.984Z,72.60
2023-05-09T05:31:42.854Z,70.10
2023-05-09T05:34:10.748Z,69.40
2023-05-09T05:36:38.610Z,66.20
2023-05-09T05:39:06.521Z,65.30
2023-05-09T05:41:33.370Z,62.50
2023-05-09T05:44:01.459Z,60.80
2023-05-09T05:46:28.637Z,59.80
2023-05-09T05:48:57.298Z,58.90
2023-05-09T05:51:25.196Z,57.40
2023-05-09T05:53:52.493Z,55.60
2023-05-09T05:56:21.718Z,54.10
2023-05-09T05:58:48.753Z,51.70
2023-05-09T06:01:15.633Z,50.80
2023-05-09T06:03:44.798Z,49.40
2023-05-09T06:06:13.425Z,49.40
2023-05-09T06:08:41.186Z,48.60
2023-05-09T06:11:09.267Z,47.30
2023-05-09T06:13:37.029Z,47.50
2023-05-09T06:16:18.681Z,47.10
2023-05-09T06:18:47.948Z,45.70
2023-05-09T06:21:14.911Z,45.70
2023-05-09T06:26:16.028Z,44.50
2023-05-09T06:28:44.804Z,45.40
2023-05-09T06:31:11.720Z,45.30
2023-05-09T06:33:38.726Z,44.90
2023-05-09T06:36:05.914Z,44.40
2023-05-09T06:38:34.556Z,43.00
2023-05-09T06:41:01.532Z,42.90
2023-05-09T06:43:28.549Z,42.90
2023-05-09T06:45:55.689Z,43.30
2023-05-09T06:48:23.987Z,43.40
2023-05-09T06:50:51.012Z,41.30
2023-05-09T06:53:18.086Z,41.50
2023-05-09T06:55:45.133Z,41.50
2023-05-09T06:58:12.141Z,40.10
2023-05-09T07:00:39.281Z,39.50
2023-05-09T07:03:09.272Z,39.10
2023-05-09T07:05:36.497Z,38.40
2023-05-09T07:08:04.046Z,38.10
2023-05-09T07:10:31.093Z,36.30
2023-05-09T07:12:58.104Z,36.80
2023-05-09T07:15:39.728Z,35.90
2023-05-09T07:18:08.790Z,36.10
2023-05-09T07:20:35.752Z,34.80
2023-05-09T07:23:06.280Z,35.20
2023-05-09T07:25:33.673Z,36.30
2023-05-09T07:28:01.054Z,36.00
2023-05-09T07:30:28.106Z,35.60
2023-05-09T07:32:55.460Z,35.10
2023-05-09T07:35:22.646Z,34.20
2023-05-09T07:37:50.242Z,34.30
2023-05-09T07:40:17.819Z,33.50
2023-05-09T07:42:49.913Z,33.30
2023-05-09T07:45:21.215Z,31.90
2023-05-09T07:47:50.097Z,32.40
2023-05-09T07:50:17.442Z,31.70
2023-05-09T07:52:44.334Z,31.10
2023-05-09T07:55:12.521Z,30.60
2023-05-09T07:57:40.088Z,29.70
2023-05-09T08:00:08.829Z,29.30
2023-05-09T08:02:35.922Z,30.00
2023-05-09T08:05:03.389Z,30.90
2023-05-09T08:07:30.372Z,32.70
2023-05-09T08:09:57.257Z,34.50
2023-05-09T08:12:24.254Z,35.60
2023-05-09T08:14:51.233Z,38.00
2023-05-09T08:17:18.653Z,39.30
2023-05-09T08:19:45.685Z,40.80
2023-05-09T08:22:21.680Z,41.80
2023-05-09T08:24:48.740Z,43.20
2023-05-09T08:27:15.790Z,44.20
2023-05-09T08:29:43.576Z,45.50
2023-05-09T08:32:10.601Z,45.50
2023-05-09T08:34:37.707Z,46.20
2023-05-09T08:37:05.044Z,47.10
2023-05-09T08:39:34.806Z,48.40
2023-05-09T08:42:02.548Z,48.20
2023-05-09T08:44:31.307Z,48.00
2023-05-09T08:47:02.954Z,48.00
2023-05-09T08:49:30.520Z,48.80
2023-05-09T08:51:58.494Z,49.30
2023-05-09T08:54:25.635Z,50.20
2023-05-09T08:56:52.581Z,51.10
2023-05-09T08:59:19.663Z,50.80
2023-05-09T09:01:47.437Z,51.60
2023-05-09T09:04:14.631Z,52.30
2023-05-09T09:06:42.677Z,52.20
2023-05-09T09:09:11.485Z,52.10
2023-05-09T09:11:40.465Z,52.20
2023-05-09T09:14:13.805Z,52.70
2023-05-09T09:16:43.602Z,52.30
2023-05-09T09:19:13.194Z,53.00
2023-05-09T09:21:47.167Z,53.00
2023-05-09T09:24:14.378Z,53.10
2023-05-09T09:26:48.726Z,53.70
2023-05-09T09:29:16.920Z,53.50
2023-05-09T09:31:48.358Z,54.30
2023-05-09T09:34:21.879Z,53.40
2023-05-09T09:36:49.174Z,53.50
2023-05-09T09:39:16.189Z,54.30
2023-05-09T09:41:44.728Z,54.00
2023-05-09T09:44:13.880Z,54.60
2023-05-09T09:46:50.880Z,54.70
2023-05-09T09:49:20.371Z,55.20
2023-05-09T09:51:58.275Z,55.40
2023-05-09T09:54:28.822Z,54.00
2023-05-09T09:56:56.975Z,54.50
2023-05-09T09:59:26.124Z,54.30
2023-05-09T10:01:56.000Z,53.80
2023-05-09T10:04:23.299Z,54.90
2023-05-09T10:06:57.810Z,55.10
2023-05-09T10:09:25.797Z,54.20
2023-05-09T10:11:53.835Z,54.50
2023-05-09T10:14:23.331Z,54.30
2023-05-09T10:16:53.559Z,54.60
2023-05-09T10:19:22.161Z,54.90
2023-05-09T10:21:54.912Z,55.20
2023-05-09T10:24:35.781Z,55.60
2023-05-09T10:27:06.620Z,56.00
2023-05-09T10:29:36.679Z,56.10
2023-05-09T10:32:17.489Z,55.40
2023-05-09T10:34:48.970Z,55.90
2023-05-09T10:37:16.922Z,56.50
2023-05-09T10:39:44.265Z,56.60
2023-05-09T10:42:13.744Z,57.00
2023-05-09T10:44:40.945Z,56.70
2023-05-09T10:47:08.317Z,57.00
2023-05-09T10:49:37.104Z,57.50
2023-05-09T10:52:04.502Z,57.40
2023-05-09T10:54:34.175Z,57.20
2023-05-09T10:57:01.299Z,58.00
2023-05-09T10:59:43.937Z,58.50
2023-05-09T11:02:15.907Z,58.40
2023-05-09T11:04:44.249Z,58.30
2023-05-09T11:07:27.910Z,58.80
2023-05-09T11:10:07.145Z,57.40
2023-05-09T11:12:33.967Z,58.50
2023-05-09T11:15:08.228Z,58.10
2023-05-09T11:17:38.680Z,58.50
2023-05-09T11:20:06.990Z,58.70
2023-05-09T11:22:44.612Z,58.50
2023-05-09T11:25:13.673Z,59.00
2023-05-09T11:27:45.933Z,59.80
2023-05-09T11:30:15.484Z,58.80
2023-05-09T11:32:55.392Z,59.60
2023-05-09T11:35:23.685Z,59.80
2023-05-09T11:38:02.202Z,58.60
2023-05-09T11:40:30.190Z,59.60
2023-05-09T11:42:59.061Z,59.00
2023-05-09T11:45:32.208Z,58.80
2023-05-09T11:48:00.502Z,58.80
2023-05-09T11:50:27.553Z,59.10
2023-05-09T11:52:54.634Z,58.50
2023-05-09T11:55:22.880Z,58.80
2023-05-09T11:57:54.318Z,59.00
2023-05-09T12:00:23.966Z,59.00
2023-05-09T12:02:52.668Z,58.80
2023-05-09T12:05:21.626Z,58.40
2023-05-09T12:07:49.329Z,58.80
2023-05-09T12:10:20.298Z,59.10
2023-05-09T12:12:49.567Z,58.30
2023-05-09T12:15:17.568Z,58.30
2023-05-09T12:17:47.071Z,58.30
2023-05-09T12:20:15.272Z,58.50
2023-05-09T12:22:52.575Z,58.30
2023-05-09T12:25:19.581Z,57.70
2023-05-09T12:27:46.513Z,57.50
2023-05-09T12:30:16.067Z,57.60
2023-05-09T12:32:43.918Z,57.70
2023-05-09T12:35:11.302Z,57.30
2023-05-09T12:37:39.126Z,57.60
2023-05-09T12:40:15.426Z,58.30
2023-05-09T12:42:46.480Z,58.50
2023-05-09T12:45:14.541Z,58.00
2023-05-09T12:47:42.184Z,57.80
2023-05-09T12:50:14.952Z,58.10
2023-05-09T12:53:01.283Z,57.30
2023-05-09T12:55:29.097Z,57.40
2023-05-09T12:58:01.739Z,57.30
2023-05-09T13:00:41.458Z,57.50
2023-05-09T13:03:20.960Z,57.80
2023-05-09T13:05:58.686Z,57.80
2023-05-09T13:08:25.873Z,58.00
2023-05-09T13:11:00.723Z,57.80
2023-05-09T13:13:31.743Z,58.20
2023-05-09T13:15:58.801Z,57.60
2023-05-09T13:18:25.953Z,57.50
2023-05-09T13:20:52.933Z,57.40
2023-05-09T13:23:20.055Z,57.30
2023-05-09T13:25:47.212Z,57.70
2023-05-09T13:28:14.088Z,57.50
2023-05-09T13:30:41.095Z,57.40
2023-05-09T13:33:23.760Z,57.00
2023-05-09T13:35:52.848Z,57.00
2023-05-09T13:38:22.983Z,56.80
2023-05-09T13:40:50.175Z,57.40
2023-05-09T13:43:17.215Z,56.70
2023-05-09T13:45:44.639Z,57.10
2023-05-09T13:48:11.802Z,57.60
2023-05-09T13:50:39.143Z,57.60
2023-05-09T13:53:06.228Z,57.40
2023-05-09T13:55:36.841Z,57.40
2023-05-09T13:58:04.124Z,56.90
2023-05-09T14:00:32.157Z,57.30
2023-05-09T14:02:59.315Z,56.90
2023-05-09T14:05:26.328Z,57.50
2023-05-09T14:07:53.692Z,57.70
2023-05-09T14:10:20.855Z,57.20
2023-05-09T14:12:48.429Z,57.20
2023-05-09T14:15:16.261Z,57.00
2023-05-09T14:17:43.617Z,57.10
2023-05-09T14:20:11.096Z,57.50
2023-05-09T14:22:38.162Z,56.70
2023-05-09T14:25:05.635Z,56.50
2023-05-09T14:27:34.037Z,56.60
2023-05-09T14:30:06.551Z,56.30
2023-05-09T14:32:33.513Z,56.70
2023-05-09T14:38:43.646Z,56.90
2023-05-09T14:41:10.970Z,57.60
2023-05-09T14:43:37.966Z,57.50
2023-05-09T14:46:05.462Z,57.60
2023-05-09T14:48:33.830Z,58.40
2023-05-09T14:51:01.331Z,56.60
2023-05-09T14:53:29.132Z,56.50
2023-05-09T14:55:56.240Z,56.90
2023-05-09T14:58:23.509Z,57.00
2023-05-09T15:00:50.578Z,56.50
2023-05-09T15:03:17.909Z,56.80
2023-05-09T15:05:45.052Z,56.50
2023-05-09T15:08:11.914Z,56.70
2023-05-09T15:10:38.847Z,56.60
2023-05-09T15:13:06.085Z,56.80
2023-05-09T15:15:34.409Z,56.10
2023-05-09T15:18:02.272Z,55.60
2023-05-09T15:20:29.288Z,56.40
2023-05-09T15:22:56.221Z,56.10
2023-05-09T15:25:23.461Z,55.80
2023-05-09T15:27:50.523Z,56.30
2023-05-09T15:30:17.902Z,55.40
2023-05-09T15:32:44.957Z,55.70
2023-05-09T15:35:12.078Z,55.60
2023-05-09T15:37:39.159Z,55.30
2023-05-09T15:40:07.506Z,55.50
2023-05-09T15:42:34.969Z,55.70
2023-05-09T15:45:02.067Z,54.60
2023-05-09T15:47:29.014Z,55.00
2023-05-09T15:49:55.876Z,55.00
2023-05-09T15:52:22.747Z,54.70
2023-05-09T15:54:50.305Z,54.80
2023-05-09T15:57:18.066Z,53.70
2023-05-09T15:59:45.018Z,54.20
2023-05-09T16:02:12.358Z,54.10
2023-05-09T16:04:39.326Z,53.80
2023-05-09T16:07:06.308Z,53.40
2023-05-09T16:09:33.349Z,53.20
2023-05-09T16:12:00.222Z,52.80
2023-05-09T16:14:27.532Z,53.00
2023-05-09T16:16:58.438Z,53.90
2023-05-09T16:19:25.449Z,53.30
2023-05-09T16:21:52.545Z,53.70
2023-05-09T16:24:19.505Z,53.20
2023-05-09T16:26:46.428Z,53.60
2023-05-09T16:29:13.736Z,53.10
2023-05-09T16:31:41.028Z,53.70
2023-05-09T16:34:08.119Z,54.40
2023-05-09T16:36:37.110Z,54.00
2023-05-09T16:39:03.980Z,53.20
2023-05-09T16:41:30.883Z,53.10
2023-05-09T16:43:58.627Z,53.40
2023-05-09T16:46:25.623Z,52.90
2023-05-09T16:48:52.942Z,53.30
2023-05-09T16:51:19.822Z,53.20
2023-05-09T16:53:46.965Z,52.50
2023-05-09T16:56:13.963Z,52.90
2023-05-09T16:58:41.782Z,53.00
2023-05-09T17:01:09.558Z,53.10
2023-05-09T17:03:36.539Z,53.30
2023-05-09T17:06:03.546Z,54.10
2023-05-09T17:08:30.456Z,54.00
2023-05-09T17:10:57.753Z,53.30
2023-05-09T17:13:24.905Z,54.00
2023-05-09T17:15:52.689Z,53.20
2023-05-09T17:18:33.402Z,53.60
2023-05-09T17:21:04.733Z,53.50
2023-05-09T17:23:31.840Z,53.30
2023-05-09T17:25:59.104Z,53.70
2023-05-09T17:28:26.112Z,53.60
2023-05-09T17:30:53.216Z,53.80
2023-05-09T17:33:20.754Z,53.50
2023-05-09T17:35:49.492Z,53.50
2023-05-09T17:38:16.727Z,53.30
2023-05-09T17:40:44.361Z,53.30
2023-05-09T17:43:13.078Z,53.60
2023-05-09T17:45:39.966Z,53.30
2023-05-09T17:48:07.285Z,52.70
2023-05-09T17:50:34.211Z,52.50
2023-05-09T17:53:01.182Z,52.40
2023-05-09T17:55:28.869Z,52.90
2023-05-09T17:57:55.707Z,52.30
2023-05-09T18:00:22.758Z,52.30
2023-05-09T18:02:51.117Z,52.50
2023-05-09T18:05:18.397Z,52.10
2023-05-09T18:07:45.362Z,51.80
2023-05-09T18:10:12.696Z,51.50
2023-05-09T18:12:39.869Z,51.30
2023-05-09T18:15:07.545Z,51.90
2023-05-09T18:17:34.535Z,51.50
2023-05-09T18:20:01.952Z,51.30
2023-05-09T18:22:28.883Z,51.10
2023-05-09T18:24:56.118Z,51.50
2023-05-09T18:27:23.168Z,51.60
2023-05-09T18:29:50.084Z,51.10
2023-05-09T18:32:18.360Z,51.50
2023-05-09T18:34:45.357Z,51.40
2023-05-09T18:37:12.273Z,51.20
2023-05-09T18:39:39.281Z,50.90
2023-05-09T18:42:06.442Z,51.20
2023-05-09T18:44:33.511Z,51.00
2023-05-09T18:47:00.602Z,50.70
2023-05-09T18:49:27.635Z,50.50
2023-05-09T18:51:56.369Z,50.50
2023-05-09T18:54:23.414Z,51.00
2023-05-09T18:56:50.518Z,51.10
2023-05-09T18:59:17.892Z,50.50
2023-05-09T19:01:45.020Z,51.20
2023-05-09T19:04:12.026Z,51.00
2023-05-09T19:06:39.075Z,51.30
2023-05-09T19:09:06.120Z,51.40
2023-05-09T19:11:33.072Z,51.50
2023-05-09T19:14:00.128Z,51.40
2023-05-09T19:16:27.233Z,51.60
2023-05-09T19:18:58.218Z,50.80
2023-05-09T19:21:25.658Z,51.00
2023-05-09T19:23:52.735Z,51.00
2023-05-09T19:26:21.802Z,50.90
2023-05-09T19:28:48.999Z,50.10
2023-05-09T19:31:16.341Z,50.60
2023-05-09T19:33:45.705Z,50.50
2023-05-09T19:36:13.513Z,50.60
2023-05-09T19:38:40.550Z,49.90
2023-05-09T19:41:07.784Z,49.90
2023-05-09T19:43:34.914Z,50.40
2023-05-09T19:46:01.990Z,49.50
2023-05-09T19:48:28.984Z,49.10
2023-05-09T19:51:00.787Z,49.10
2023-05-09T19:53:27.871Z,49.10
2023-05-09T19:55:54.841Z,49.60
2023-05-09T19:58:21.922Z,49.10
2023-05-09T20:00:48.927Z,49.00
2023-05-09T20:03:15.915Z,49.10
2023-05-09T20:05:42.945Z,49.10
2023-05-09T20:08:09.982Z,49.90
2023-05-09T20:10:37.509Z,48.80
2023-05-09T20:13:04.718Z,48.80
2023-05-09T20:15:31.787Z,49.50
2023-05-09T20:17:58.957Z,49.00
2023-05-09T20:20:26.198Z,49.10
2023-05-09T20:22:53.143Z,48.80
2023-05-09T20:25:20.071Z,49.00
2023-05-09T20:27:47.117Z,49.50
2023-05-09T20:30:14.442Z,49.20
2023-05-09T20:32:41.530Z,49.80
2023-05-09T20:35:09.372Z,50.10
2023-05-09T20:37:37.046Z,49.50
2023-05-09T20:40:07.328Z,50.10
2023-05-09T20:42:34.874Z,50.30
2023-05-09T20:45:02.165Z,50.30
2023-05-09T20:47:29.080Z,51.20
2023-05-09T20:49:58.093Z,50.70
2023-05-09T20:52:25.524Z,51.20
2023-05-09T20:54:52.595Z,51.40
2023-05-09T20:57:19.575Z,50.80
2023-05-09T20:59:46.458Z,52.10
2023-05-09T21:02:13.741Z,51.30
2023-05-09T21:04:40.708Z,51.50
2023-05-09T21:07:09.017Z,51.80
2023-05-09T21:09:36.194Z,51.90
2023-05-09T21:12:04.547Z,52.20
2023-05-09T21:14:31.727Z,52.50
2023-05-09T21:16:58.753Z,52.70
2023-05-09T21:19:25.991Z,53.00
2023-05-09T21:21:52.951Z,52.90
2023-05-09T21:24:19.826Z,52.80
2023-05-09T21:26:47.015Z,53.30
2023-05-09T21:29:14.403Z,53.90
2023-05-09T21:31:41.518Z,54.10
2023-05-09T21:34:10.269Z,54.40
2023-05-09T21:36:38.435Z,54.60
2023-05-09T21:39:09.054Z,55.00
2023-05-09T21:41:37.488Z,55.00
2023-05-09T21:44:05.172Z,55.60
2023-05-09T21:46:35.457Z,55.40
2023-05-09T21:49:02.513Z,55.80
2023-05-09T21:51:29.762Z,56.20
2023-05-09T21:53:56.631Z,56.60
2023-05-09T21:56:23.616Z,56.60
2023-05-09T21:58:50.544Z,56.60
2023-05-09T22:01:19.230Z,57.30
2023-05-09T22:03:46.466Z,57.40
2023-05-09T22:06:13.664Z,57.80
2023-05-09T22:08:40.637Z,57.80
2023-05-09T22:11:07.885Z,58.20
2023-05-09T22:13:36.388Z,58.70
2023-05-09T22:16:04.080Z,58.90
2023-05-09T22:18:31.389Z,59.20
2023-05-09T22:20:58.982Z,59.40
2023-05-09T22:23:25.974Z,59.70
2023-05-09T22:25:53.330Z,60.20
2023-05-09T22:28:20.346Z,60.60
2023-05-09T22:30:47.276Z,61.40
2023-05-09T22:33:14.350Z,61.60
2023-05-09T22:35:41.331Z,61.90
2023-05-09T22:38:08.249Z,62.20
2023-05-09T22:40:35.323Z,64.20
2023-05-09T22:43:02.316Z,63.60
2023-05-09T22:45:29.244Z,63.70
2023-05-09T22:47:56.273Z,64.70
2023-05-09T22:50:23.200Z,64.90
2023-05-09T22:52:50.494Z,65.80
2023-05-09T22:55:18.375Z,65.60
2023-05-09T22:57:45.544Z,66.00
2023-05-09T23:00:13.199Z,67.40
2023-05-09T23:02:43.302Z,66.90
2023-05-09T23:05:10.597Z,67.60
2023-05-09T23:07:37.719Z,67.80
2023-05-09T23:10:07.457Z,68.50
2023-05-09T23:12:34.362Z,68.80
2023-05-09T23:15:01.271Z,69.50
2023-05-09T23:17:28.198Z,70.10
2023-05-09T23:19:55.176Z,70.90
2023-05-09T23:22:22.125Z,70.60
2023-05-09T23:24:49.039Z,71.10
2023-05-09T23:27:16.108Z,72.20
2023-05-09T23:29:43.440Z,72.20
2023-05-09T23:32:10.463Z,72.60
2023-05-09T23:34:37.425Z,73.00
2023-05-09T23:37:04.539Z,73.60
2023-05-09T23:39:31.751Z,75.30
2023-05-09T23:41:58.823Z,74.60
2023-05-09T23:44:25.873Z,74.60
2023-05-09T23:46:52.857Z,74.90
2023-05-09T23:49:19.766Z,75.80
2023-05-09T23:51:46.728Z,76.30
2023-05-09T23:54:13.653Z,76.00
2023-05-09T23:56:40.711Z,76.20
2023-05-09T23:59:07.556Z,77.00
